CheckWX is a tool to help pilots better visualize weather data.  It is not intended as a substitute for an official pre-flight weather briefing.

13:27:30 UTC

KIND TAF
Indianapolis International Airport
Indianapolis, Indiana, USA
KIND 241310Z 2413/2518 VRB04KT P6SM -TSRA BKN030CB OVC070 FM241330 15005KT P6SM OVC070 FM241700 21008KT P6SM SCT120 FM251700 23015G23KT P6SM SCT200

May-24@
13:00 UTC

May-24 @ 13:00 UTC

May-24@
13:30 UTC

May-24 @ 13:30 UTC

KIND 241310Z 2413/2518 VRB04KT P6SM -TSRA BKN030CB OVC070
Wind
  • Variable at 4 KTS
Conditions
Light Thunderstorm, Light Rain
Cloud Levels
  • Broken at 3,000' AGL
  • Overcast at 7,000' AGL

May-24@
13:30 UTC

May-24 @ 13:30 UTC

May-24@
17:00 UTC

May-24 @ 17:00 UTC

FM241330 15005KT P6SM OVC070

From

From Standard forecast or significant change

Wind
  • 150° at 5 KTS
Cloud Levels
  • Overcast at 7,000' AGL

May-24@
17:00 UTC

May-24 @ 17:00 UTC

May-25@
17:00 UTC

May-25 @ 17:00 UTC

FM241700 21008KT P6SM SCT120

From

From Standard forecast or significant change

Wind
  • 210° at 8 KTS
Cloud Levels
  • Scattered at 12,000' AGL

May-25@
17:00 UTC

May-25 @ 17:00 UTC

May-25@
18:00 UTC

May-25 @ 18:00 UTC

FM251700 23015G23KT P6SM SCT200

From

From Standard forecast or significant change

Wind
  • 230° at 15 KTS
  • {Gusting to 23 KTS
Cloud Levels
  • Scattered at 20,000' AGL